Time;durP1;ratioP1;P1;durP2;ratioP2;P2;SDS_P1;SDS_P2;PMS_P1;PMS_P2;Temp;Humidity;BMP_temperature;BMP_pressure;BME280_temperature;BME280_humidity;BME280_pressure;Samples;Min_cycle;Max_cycle;Signal;HPM_P1;HPM_P2
2022/07/22 00:01:09;;;;;;;3.93;2.53;;;19.40;98.00;;;;;;5053642;28;20484;-68
2022/07/22 00:03:36;;;;;;;7.20;2.80;;;19.40;98.00;;;;;;5053283;28;20461;-68
2022/07/22 00:06:04;;;;;;;7.50;2.83;;;19.40;98.00;;;;;;5053389;28;20489;-68
2022/07/22 00:08:32;;;;;;;4.13;2.60;;;19.30;98.00;;;;;;5053014;28;20489;-69
2022/07/22 00:11:07;;;;;;;5.00;3.17;;;19.20;98.00;;;;;;5053088;28;20458;-67
2022/07/22 00:13:34;;;;;;;4.07;2.37;;;19.20;98.00;;;;;;5053273;28;20467;-68
2022/07/22 00:16:02;;;;;;;4.57;2.53;;;19.20;98.00;;;;;;5052033;28;20929;-69
2022/07/22 00:18:29;;;;;;;3.37;2.60;;;19.20;98.00;;;;;;5053021;28;20518;-69
2022/07/22 00:20:56;;;;;;;5.20;3.10;;;19.10;98.00;;;;;;5053197;28;20449;-69
2022/07/22 00:23:23;;;;;;;4.70;3.03;;;19.00;98.00;;;;;;5052714;28;20478;-69
2022/07/22 00:25:53;;;;;;;3.60;2.80;;;19.00;98.00;;;;;;5052829;28;20519;-68
2022/07/22 00:28:20;;;;;;;4.00;2.20;;;18.80;98.00;;;;;;5052550;28;20493;-69
2022/07/22 00:30:47;;;;;;;7.53;3.13;;;18.80;98.00;;;;;;5052684;28;20449;-69
2022/07/22 00:33:15;;;;;;;4.90;2.60;;;18.80;98.00;;;;;;5052413;28;20462;-67
2022/07/22 00:35:43;;;;;;;5.30;3.13;;;18.80;98.00;;;;;;5051283;28;20465;-67
2022/07/22 00:38:10;;;;;;;4.03;2.73;;;19.00;98.00;;;;;;5052440;28;20453;-69
2022/07/22 00:40:37;;;;;;;5.93;2.77;;;19.10;98.00;;;;;;5052561;28;20928;-69
2022/07/22 00:43:06;;;;;;;5.20;2.97;;;19.30;98.00;;;;;;5052518;28;20665;-68
2022/07/22 00:45:33;;;;;;;3.93;2.63;;;19.10;98.00;;;;;;5052306;28;20457;-68
2022/07/22 00:48:00;;;;;;;4.60;2.37;;;19.10;98.00;;;;;;5051409;28;20490;-68
2022/07/22 00:50:27;;;;;;;5.03;2.60;;;19.10;98.00;;;;;;5051092;28;20462;-69
2022/07/22 00:52:55;;;;;;;4.10;2.77;;;18.90;98.00;;;;;;5052321;28;20457;-68
2022/07/22 00:55:22;;;;;;;5.87;3.17;;;18.90;98.00;;;;;;5052352;28;20521;-68
2022/07/22 00:57:49;;;;;;;3.30;2.63;;;18.90;98.00;;;;;;5051027;28;20463;-68
2022/07/22 01:00:21;;;;;;;4.73;2.90;;;18.80;98.00;;;;;;5052277;28;20458;-69
2022/07/22 01:02:48;;;;;;;5.57;3.13;;;18.90;98.00;;;;;;5052320;28;20555;-68
2022/07/22 01:05:17;;;;;;;5.47;3.27;;;19.00;98.00;;;;;;5052258;28;20454;-68
2022/07/22 01:07:44;;;;;;;3.30;2.40;;;18.80;98.00;;;;;;5052076;28;20490;-68
2022/07/22 01:10:12;;;;;;;5.30;3.47;;;18.80;98.00;;;;;;5052160;28;20453;-68
2022/07/22 01:12:39;;;;;;;4.13;3.03;;;18.90;98.00;;;;;;5052125;28;20461;-69
2022/07/22 01:15:08;;;;;;;5.00;2.90;;;18.90;98.00;;;;;;5052275;28;20461;-68
2022/07/22 01:17:37;;;;;;;5.23;3.23;;;19.00;98.00;;;;;;5050927;28;20466;-68
2022/07/22 01:20:06;;;;;;;5.57;2.80;;;18.80;98.00;;;;;;5052332;28;20462;-68
2022/07/22 01:22:34;;;;;;;4.10;2.73;;;18.60;98.00;;;;;;5051870;28;20815;-68
2022/07/22 01:25:01;;;;;;;4.93;2.97;;;18.50;98.00;;;;;;5051951;28;20454;-67
2022/07/22 01:27:29;;;;;;;5.00;2.83;;;18.30;98.00;;;;;;5050428;28;20482;-69
2022/07/22 01:29:59;;;;;;;6.00;2.80;;;18.20;98.00;;;;;;5051729;28;20446;-68
2022/07/22 01:32:27;;;;;;;5.67;2.80;;;18.20;98.00;;;;;;5051963;28;20500;-67
2022/07/22 01:34:54;;;;;;;4.43;3.40;;;18.10;98.00;;;;;;5051426;28;20457;-68
2022/07/22 01:37:23;;;;;;;5.40;3.37;;;18.30;98.00;;;;;;5051909;28;20461;-69
2022/07/22 01:39:50;;;;;;;5.10;2.67;;;18.40;98.00;;;;;;5051731;28;20462;-68
2022/07/22 01:42:17;;;;;;;5.97;3.33;;;18.20;98.00;;;;;;5051706;28;20504;-68
2022/07/22 01:44:45;;;;;;;4.53;2.73;;;18.10;98.00;;;;;;5051651;28;20458;-68
2022/07/22 01:47:12;;;;;;;4.03;2.80;;;18.10;98.00;;;;;;5051643;28;20956;-69
2022/07/22 01:49:39;;;;;;;3.70;2.60;;;18.10;98.00;;;;;;5051390;28;20489;-68
2022/07/22 01:52:07;;;;;;;6.17;2.90;;;18.10;98.00;;;;;;5051644;28;20520;-68
2022/07/22 01:54:35;;;;;;;5.63;3.07;;;18.00;98.00;;;;;;5051546;28;20457;-69
2022/07/22 01:57:03;;;;;;;5.27;3.17;;;18.00;98.00;;;;;;5051571;28;21041;-68
2022/07/22 01:59:31;;;;;;;3.70;2.63;;;17.90;98.00;;;;;;5051076;28;20458;-68
2022/07/22 02:01:58;;;;;;;3.60;2.63;;;17.90;98.00;;;;;;5054518;28;20460;-68
2022/07/22 02:04:25;;;;;;;4.20;3.00;;;17.90;98.00;;;;;;5055427;28;20450;-67
2022/07/22 02:06:52;;;;;;;4.73;3.53;;;18.00;98.00;;;;;;5055544;28;20468;-69
2022/07/22 02:09:27;;;;;;;5.30;3.37;;;18.00;98.00;;;;;;5054213;28;20512;-68
2022/07/22 02:11:56;;;;;;;4.87;2.90;;;17.90;98.00;;;;;;5055612;28;20979;-69
2022/07/22 02:14:24;;;;;;;5.30;2.97;;;18.00;98.00;;;;;;5055549;28;20465;-68
2022/07/22 02:16:52;;;;;;;4.30;3.00;;;17.90;98.00;;;;;;5054282;28;20453;-68
2022/07/22 02:19:19;;;;;;;3.43;2.50;;;17.80;98.00;;;;;;5055358;28;20473;-68
2022/07/22 02:21:46;;;;;;;4.80;3.13;;;17.80;98.00;;;;;;5055250;28;20523;-69
2022/07/22 02:24:13;;;;;;;4.17;3.00;;;17.80;98.00;;;;;;5055508;28;20454;-68
2022/07/22 02:26:40;;;;;;;4.37;2.80;;;17.80;98.00;;;;;;5055329;28;20939;-68
2022/07/22 02:29:09;;;;;;;4.40;3.10;;;17.90;98.00;;;;;;5055134;28;20566;-68
2022/07/22 02:31:36;;;;;;;3.97;2.97;;;17.80;98.00;;;;;;5054867;28;20458;-68
2022/07/22 02:34:03;;;;;;;5.43;3.10;;;17.90;98.00;;;;;;5055011;28;20457;-68
2022/07/22 02:36:30;;;;;;;6.30;2.97;;;17.90;98.00;;;;;;5053522;28;20462;-68
2022/07/22 02:38:57;;;;;;;4.43;2.87;;;17.90;98.00;;;;;;5054508;28;20457;-68
2022/07/22 02:41:25;;;;;;;5.17;2.80;;;18.00;98.00;;;;;;5053530;28;20462;-67
2022/07/22 02:43:53;;;;;;;4.13;3.03;;;18.10;98.00;;;;;;5054589;28;20462;-68
2022/07/22 02:46:22;;;;;;;4.07;2.70;;;18.00;98.00;;;;;;5054649;28;20548;-69
2022/07/22 02:48:49;;;;;;;4.33;2.80;;;17.80;98.00;;;;;;5054382;28;21030;-69
2022/07/22 02:51:17;;;;;;;5.13;3.00;;;17.80;98.00;;;;;;5053007;28;20823;-68
2022/07/22 02:53:44;;;;;;;4.40;3.10;;;17.60;98.00;;;;;;5054405;28;20465;-67
2022/07/22 02:56:11;;;;;;;4.90;2.67;;;17.70;98.00;;;;;;5054488;28;20454;-68
2022/07/22 02:58:40;;;;;;;7.40;3.10;;;17.70;98.00;;;;;;5053116;28;20454;-68
2022/07/22 03:01:07;;;;;;;6.23;3.20;;;17.70;98.00;;;;;;5054449;28;20462;-69
2022/07/22 03:03:35;;;;;;;3.53;2.50;;;17.60;98.00;;;;;;5054376;28;20461;-68
2022/07/22 03:06:02;;;;;;;4.97;2.67;;;17.50;98.00;;;;;;5054299;28;20959;-69
2022/07/22 03:08:29;;;;;;;3.57;2.60;;;17.50;98.00;;;;;;5054106;28;20577;-68
2022/07/22 03:10:57;;;;;;;5.97;2.93;;;17.50;98.00;;;;;;5052945;28;20450;-69
2022/07/22 03:13:24;;;;;;;4.90;2.83;;;17.50;98.00;;;;;;5054366;28;20457;-68
2022/07/22 03:15:51;;;;;;;3.50;2.47;;;17.40;98.00;;;;;;5054269;28;21113;-68
2022/07/22 03:18:18;;;;;;;4.40;2.80;;;17.40;98.00;;;;;;5052899;28;20453;-67
2022/07/22 03:20:47;;;;;;;5.60;2.60;;;17.60;98.00;;;;;;5054248;28;20485;-68
2022/07/22 03:23:17;;;;;;;4.10;2.83;;;17.70;98.00;;;;;;5054090;28;20493;-67
2022/07/22 03:25:45;;;;;;;12.63;2.93;;;17.60;98.00;;;;;;5054060;28;20461;-68
2022/07/22 03:28:12;;;;;;;4.67;2.97;;;17.70;98.00;;;;;;5053944;28;20819;-68
2022/07/22 03:30:39;;;;;;;4.67;2.63;;;17.70;98.00;;;;;;5054250;28;20454;-68
2022/07/22 03:33:06;;;;;;;4.07;2.63;;;17.50;98.00;;;;;;5053699;28;20453;-67
2022/07/22 03:35:33;;;;;;;4.33;2.60;;;17.40;98.00;;;;;;5053981;28;20458;-67
2022/07/22 03:38:03;;;;;;;4.77;3.13;;;17.30;98.00;;;;;;5053467;28;20503;-68
2022/07/22 03:40:32;;;;;;;6.70;3.43;;;17.30;98.00;;;;;;5053677;28;20541;-68
2022/07/22 03:42:59;;;;;;;3.70;2.90;;;17.30;98.00;;;;;;5053759;28;20587;-66
2022/07/22 03:45:30;;;;;;;4.77;3.17;;;17.30;98.00;;;;;;5053349;28;20458;-68
2022/07/22 03:47:57;;;;;;;3.23;2.50;;;17.30;98.00;;;;;;5053511;28;20482;-68
2022/07/22 03:50:25;;;;;;;5.10;2.67;;;17.40;98.00;;;;;;5053585;28;20941;-67
2022/07/22 03:52:52;;;;;;;6.00;2.80;;;17.60;98.00;;;;;;5053439;28;20460;-68
2022/07/22 03:55:20;;;;;;;4.90;3.07;;;17.60;98.00;;;;;;5053380;28;20459;-67
2022/07/22 03:57:47;;;;;;;3.97;2.70;;;17.40;98.00;;;;;;5053241;28;20450;-67
2022/07/22 04:00:15;;;;;;;4.10;2.80;;;17.40;98.00;;;;;;5053418;28;20462;-67
2022/07/22 04:02:43;;;;;;;4.87;2.80;;;17.30;98.00;;;;;;5053293;28;20464;-68
2022/07/22 04:05:11;;;;;;;4.30;3.20;;;17.20;98.00;;;;;;5053228;28;20458;-67
2022/07/22 04:07:38;;;;;;;3.80;2.73;;;17.10;98.00;;;;;;5053195;28;20465;-67
2022/07/22 04:10:06;;;;;;;2.67;1.97;;;17.20;98.00;;;;;;5053003;28;21003;-68
2022/07/22 04:12:36;;;;;;;3.87;2.60;;;17.10;98.00;;;;;;5051808;28;20457;-68
2022/07/22 04:15:04;;;;;;;4.77;2.40;;;17.10;98.00;;;;;;5053070;28;20927;-68
2022/07/22 04:17:31;;;;;;;5.50;2.60;;;17.00;98.00;;;;;;5053018;28;20458;-67
2022/07/22 04:20:07;;;;;;;3.10;2.20;;;17.10;98.00;;;;;;5053063;28;20570;-67
2022/07/22 04:22:34;;;;;;;3.37;2.10;;;17.20;98.00;;;;;;5052876;28;20501;-67
2022/07/22 04:25:02;;;;;;;3.53;2.40;;;17.30;98.00;;;;;;5052899;28;20454;-68
2022/07/22 04:27:29;;;;;;;3.40;2.67;;;17.20;98.00;;;;;;5052958;28;20450;-67
2022/07/22 04:29:58;;;;;;;5.30;2.90;;;17.30;98.00;;;;;;5052873;28;20485;-68
2022/07/22 04:32:25;;;;;;;4.17;2.37;;;17.50;98.00;;;;;;5052775;28;20458;-67
2022/07/22 04:34:52;;;;;;;4.33;2.90;;;17.50;98.00;;;;;;5052717;28;20830;-68
2022/07/22 04:37:19;;;;;;;4.33;2.90;;;17.50;98.00;;;;;;5052772;28;20843;-68
2022/07/22 04:39:46;;;;;;;3.27;2.40;;;17.60;98.00;;;;;;5052218;28;20462;-67
2022/07/22 04:42:13;;;;;;;6.13;3.30;;;17.50;98.00;;;;;;5052393;28;20921;-68
2022/07/22 04:44:40;;;;;;;3.83;2.60;;;17.50;98.00;;;;;;5052455;28;20461;-67
2022/07/22 04:47:09;;;;;;;3.03;2.43;;;17.60;98.00;;;;;;5052358;28;20464;-68
2022/07/22 04:49:36;;;;;;;5.57;3.77;;;17.80;98.00;;;;;;5052236;28;20881;-68
2022/07/22 04:52:03;;;;;;;3.60;2.27;;;17.80;98.00;;;;;;5052585;28;20807;-68
2022/07/22 04:54:34;;;;;;;4.40;3.10;;;17.80;98.00;;;;;;5052211;28;20458;-68
2022/07/22 04:57:01;;;;;;;4.80;3.03;;;17.80;98.00;;;;;;5052255;28;20460;-67
2022/07/22 04:59:33;;;;;;;6.20;3.50;;;17.70;98.00;;;;;;5052138;28;20454;-68
2022/07/22 05:02:01;;;;;;;6.97;3.00;;;17.80;98.00;;;;;;5050929;28;20453;-68
2022/07/22 05:04:30;;;;;;;5.80;3.23;;;18.10;98.00;;;;;;5052175;28;20613;-68
2022/07/22 05:06:58;;;;;;;4.87;2.43;;;18.20;98.00;;;;;;5052276;28;20491;-67
2022/07/22 05:09:25;;;;;;;4.37;2.77;;;18.20;98.00;;;;;;5051980;28;20496;-68
2022/07/22 05:11:52;;;;;;;6.33;3.73;;;18.00;98.00;;;;;;5052110;28;20477;-67
2022/07/22 05:14:19;;;;;;;6.40;3.40;;;17.90;98.00;;;;;;5052050;28;20802;-67
2022/07/22 05:16:47;;;;;;;5.27;3.07;;;18.00;98.00;;;;;;5052019;28;20462;-68
2022/07/22 05:19:14;;;;;;;3.77;2.63;;;17.90;98.00;;;;;;5052037;28;20654;-68
2022/07/22 05:21:43;;;;;;;3.07;2.50;;;17.90;98.00;;;;;;5051836;28;20511;-68
2022/07/22 05:24:10;;;;;;;8.00;3.50;;;18.00;98.00;;;;;;5051823;28;20473;-67
2022/07/22 05:26:37;;;;;;;6.23;3.33;;;18.20;98.00;;;;;;5050724;28;20461;-67
2022/07/22 05:29:04;;;;;;;5.40;3.30;;;18.30;98.00;;;;;;5051694;28;20492;-67
2022/07/22 05:31:32;;;;;;;8.13;3.40;;;18.40;98.00;;;;;;5052108;28;20515;-67
2022/07/22 05:34:02;;;;;;;5.70;3.30;;;18.40;98.00;;;;;;5051478;28;20516;-68
2022/07/22 05:36:29;;;;;;;4.70;2.63;;;18.60;98.00;;;;;;5051720;28;20459;-67
2022/07/22 05:38:59;;;;;;;7.33;3.93;;;18.70;98.00;;;;;;5051610;28;20531;-68
2022/07/22 05:41:26;;;;;;;5.80;3.80;;;18.80;98.00;;;;;;5034164;28;20511;-68
2022/07/22 05:43:53;;;;;;;5.50;3.40;;;18.80;98.00;;;;;;5051379;28;20450;-67
2022/07/22 05:46:20;;;;;;;5.37;2.90;;;19.00;98.00;;;;;;5051703;28;20454;-68
2022/07/22 05:48:47;;;;;;;5.40;3.20;;;19.00;98.00;;;;;;5051441;28;20469;-68
2022/07/22 05:51:14;;;;;;;4.10;2.90;;;19.10;98.00;;;;;;5051583;28;20469;-68
2022/07/22 05:53:42;;;;;;;5.33;2.80;;;19.20;98.00;;;;;;5051482;28;20493;-68
2022/07/22 05:56:11;;;;;;;5.70;3.23;;;19.30;98.00;;;;;;5051516;28;20473;-67
2022/07/22 05:58:39;;;;;;;4.90;3.10;;;19.40;98.00;;;;;;5051266;28;20989;-61
2022/07/22 06:01:06;;;;;;;6.07;3.53;;;19.40;98.00;;;;;;5051539;28;20467;-61
2022/07/22 06:03:33;;;;;;;4.00;2.80;;;19.50;98.00;;;;;;5051444;28;20453;-61
2022/07/22 06:06:02;;;;;;;5.33;3.37;;;19.60;98.00;;;;;;5051560;28;20465;-62
2022/07/22 06:08:31;;;;;;;5.90;3.80;;;19.70;98.00;;;;;;5050187;28;20943;-62
2022/07/22 06:10:59;;;;;;;4.27;2.57;;;19.70;98.00;;;;;;5051303;28;20488;-61
2022/07/22 06:13:28;;;;;;;4.87;3.37;;;19.80;98.00;;;;;;5051455;28;20924;-61
2022/07/22 06:15:55;;;;;;;4.70;2.70;;;19.80;98.00;;;;;;5051706;28;20473;-61
2022/07/22 06:18:23;;;;;;;6.07;3.43;;;19.90;98.00;;;;;;5051420;28;20468;-62
2022/07/22 06:20:50;;;;;;;5.90;3.27;;;20.00;98.00;;;;;;5051281;28;20458;-61
2022/07/22 06:23:17;;;;;;;7.03;4.03;;;20.10;98.00;;;;;;5050481;28;20466;-62
2022/07/22 06:25:44;;;;;;;8.90;3.90;;;20.20;98.00;;;;;;5051228;28;20467;-61
2022/07/22 06:28:12;;;;;;;11.40;2.60;;;20.30;98.00;;;;;;5051306;28;20545;-69
2022/07/22 06:30:41;;;;;;;4.10;2.60;;;20.50;98.00;;;;;;5051341;28;20492;-68
2022/07/22 06:33:09;;;;;;;6.67;3.70;;;20.90;98.00;;;;;;5051515;28;20450;-67
2022/07/22 06:35:38;;;;;;;6.30;3.53;;;21.40;98.00;;;;;;5051427;28;20468;-67
2022/07/22 06:38:06;;;;;;;5.23;3.73;;;21.80;98.00;;;;;;5051204;28;20504;-67
2022/07/22 06:40:33;;;;;;;4.80;3.00;;;22.10;98.00;;;;;;5049988;28;20511;-67
2022/07/22 06:43:00;;;;;;;4.67;3.00;;;22.40;98.00;;;;;;5051178;28;20450;-67
2022/07/22 06:45:28;;;;;;;5.70;3.30;;;22.60;98.00;;;;;;5051122;28;20816;-67
2022/07/22 06:47:57;;;;;;;7.07;3.70;;;22.90;98.00;;;;;;5053930;28;20812;-67
2022/07/22 06:50:24;;;;;;;5.10;2.93;;;23.20;98.00;;;;;;5054415;28;20493;-68
2022/07/22 06:52:52;;;;;;;5.40;3.43;;;23.40;98.00;;;;;;5054663;28;20453;-67
2022/07/22 06:55:19;;;;;;;6.73;3.80;;;23.60;98.00;;;;;;5054541;28;20461;-68
2022/07/22 06:57:46;;;;;;;6.53;3.73;;;23.70;98.00;;;;;;5054485;28;20461;-67
2022/07/22 07:00:14;;;;;;;4.10;2.83;;;23.80;98.00;;;;;;5054353;28;20454;-68
2022/07/22 07:02:42;;;;;;;7.97;4.37;;;23.90;98.00;;;;;;5053963;28;20457;-67
2022/07/22 07:05:13;;;;;;;8.20;4.00;;;24.00;98.00;;;;;;5054124;28;20465;-67
2022/07/22 07:07:40;;;;;;;6.80;3.70;;;24.10;98.00;;;;;;5049442;28;20462;-67
2022/07/22 07:10:12;;;;;;;7.80;4.20;;;24.20;98.00;;;;;;5032141;28;20490;-67
2022/07/22 07:12:40;;;;;;;7.10;4.10;;;24.30;98.00;;;;;;5039895;28;20558;-67
2022/07/22 07:15:08;;;;;;;7.30;3.67;;;24.20;98.00;;;;;;5032351;28;20463;-67
2022/07/22 07:17:35;;;;;;;6.20;3.80;;;24.30;98.00;;;;;;5039425;28;20469;-61
2022/07/22 07:20:02;;;;;;;4.97;3.33;;;24.10;98.00;;;;;;5050320;28;20453;-60
2022/07/22 07:22:31;;;;;;;8.00;4.00;;;23.90;98.00;;;;;;5048552;28;20497;-61
2022/07/22 07:24:58;;;;;;;8.50;4.50;;;23.90;98.00;;;;;;5040570;28;20461;-61
2022/07/22 07:27:25;;;;;;;6.43;3.77;;;23.70;98.00;;;;;;5032667;28;21063;-61
2022/07/22 07:29:53;;;;;;;5.90;3.40;;;23.60;98.00;;;;;;5040266;28;20485;-61
2022/07/22 07:32:20;;;;;;;6.20;3.70;;;23.50;98.00;;;;;;5040586;28;20475;-61
2022/07/22 07:34:47;;;;;;;6.00;3.80;;;23.40;98.00;;;;;;5042516;28;20838;-62
2022/07/22 07:37:14;;;;;;;6.50;4.03;;;23.40;98.00;;;;;;5032960;28;21253;-62
2022/07/22 07:39:43;;;;;;;5.77;3.60;;;23.50;98.00;;;;;;5041972;28;20463;-62
2022/07/22 07:42:10;;;;;;;7.00;4.27;;;23.70;98.00;;;;;;5041619;28;20496;-61
2022/07/22 07:44:37;;;;;;;9.53;4.20;;;23.70;98.00;;;;;;5047584;28;20462;-62
2022/07/22 07:47:05;;;;;;;5.83;3.60;;;23.70;98.00;;;;;;5039226;28;20454;-62
2022/07/22 07:49:33;;;;;;;6.03;3.60;;;23.70;98.00;;;;;;5035963;28;20576;-61
2022/07/22 07:52:00;;;;;;;7.70;4.00;;;23.70;98.00;;;;;;5040283;28;20454;-61
2022/07/22 07:54:27;;;;;;;8.20;4.13;;;23.90;98.00;;;;;;5049827;28;20449;-62
2022/07/22 07:56:56;;;;;;;6.47;4.00;;;24.10;98.00;;;;;;5040641;28;20446;-61
2022/07/22 07:59:23;;;;;;;4.90;3.20;;;24.30;98.00;;;;;;5035386;28;20469;-62
2022/07/22 08:01:50;;;;;;;6.27;3.90;;;24.40;98.00;;;;;;5047430;28;20454;-62
2022/07/22 08:04:17;;;;;;;6.47;3.70;;;24.40;98.00;;;;;;5044324;28;20462;-61
2022/07/22 08:06:44;;;;;;;6.40;4.00;;;24.40;98.00;;;;;;5036708;28;20485;-61
2022/07/22 08:09:11;;;;;;;5.17;3.70;;;24.50;98.00;;;;;;5048759;28;20461;-61
2022/07/22 08:11:39;;;;;;;10.00;4.43;;;24.50;98.00;;;;;;5044375;28;20498;-62
2022/07/22 08:14:07;;;;;;;6.03;3.83;;;24.60;98.00;;;;;;5046143;28;20461;-61
2022/07/22 08:16:35;;;;;;;6.83;3.50;;;24.60;98.00;;;;;;5043355;28;20477;-61
2022/07/22 08:19:02;;;;;;;7.87;3.70;;;24.70;98.00;;;;;;5037121;28;20446;-61
2022/07/22 08:21:30;;;;;;;10.97;4.67;;;24.80;98.00;;;;;;5033373;28;21126;-62
2022/07/22 08:23:57;;;;;;;7.63;3.73;;;24.90;98.00;;;;;;5035538;28;20540;-62
2022/07/22 08:26:24;;;;;;;6.50;3.83;;;25.10;98.00;;;;;;5036546;28;20462;-61
2022/07/22 08:28:51;;;;;;;7.23;4.40;;;25.30;98.00;;;;;;5043143;28;20458;-62
2022/07/22 08:31:20;;;;;;;9.10;4.40;;;25.40;98.00;;;;;;5045272;28;20497;-63
2022/07/22 08:33:47;;;;;;;6.13;4.00;;;25.50;98.00;;;;;;5026897;28;20458;-62
2022/07/22 08:36:14;;;;;;;9.93;4.23;;;25.50;98.00;;;;;;5034496;28;20477;-62
2022/07/22 08:38:41;;;;;;;6.67;4.03;;;25.70;98.00;;;;;;5038686;28;20458;-62
2022/07/22 08:41:09;;;;;;;6.77;3.50;;;25.80;98.00;;;;;;5046959;28;20465;-61
2022/07/22 08:43:39;;;;;;;5.10;3.70;;;26.00;98.00;;;;;;5048187;28;20486;-62
2022/07/22 08:46:06;;;;;;;6.23;4.03;;;26.00;98.00;;;;;;5038667;28;20500;-62
2022/07/22 08:48:37;;;;;;;7.70;4.10;;;26.10;98.00;;;;;;5033473;28;20856;-61
2022/07/22 08:51:05;;;;;;;7.60;4.30;;;26.20;98.00;;;;;;5033802;28;20492;-62
2022/07/22 08:53:32;;;;;;;7.10;3.70;;;26.30;98.00;;;;;;5048304;28;20454;-62
2022/07/22 08:56:01;;;;;;;9.67;4.63;;;26.40;98.00;;;;;;5035407;28;20549;-62
2022/07/22 08:58:28;;;;;;;6.00;3.50;;;26.50;97.70;;;;;;5030448;28;20470;-62
2022/07/22 09:01:06;;;;;;;6.50;3.90;;;26.60;97.00;;;;;;5035284;28;20470;-61
2022/07/22 09:03:44;;;;;;;6.50;4.10;;;26.80;95.70;;;;;;5048559;28;20461;-62
2022/07/22 09:06:12;;;;;;;7.50;4.37;;;26.90;96.10;;;;;;5048020;28;20458;-61
2022/07/22 09:08:55;;;;;;;7.80;4.37;;;27.00;95.70;;;;;;5047631;28;20830;-61
2022/07/22 09:11:24;;;;;;;6.50;3.70;;;27.00;95.50;;;;;;5039052;28;20516;-62
2022/07/22 09:13:53;;;;;;;7.47;3.90;;;27.10;97.50;;;;;;5047364;28;20462;-62
2022/07/22 09:16:42;;;;;;;6.10;3.77;;;27.20;95.50;;;;;;5038388;28;20466;-62
2022/07/22 09:19:12;;;;;;;4.97;3.50;;;27.30;93.20;;;;;;5038822;28;20477;-63
2022/07/22 09:21:42;;;;;;;6.17;3.70;;;27.40;94.80;;;;;;5041951;28;20477;-61
2022/07/22 09:24:09;;;;;;;6.00;3.50;;;27.50;94.50;;;;;;5047947;28;20519;-60
2022/07/22 09:26:38;;;;;;;6.53;3.77;;;27.60;94.10;;;;;;5047751;28;20449;-60
2022/07/22 09:29:07;;;;;;;5.40;3.40;;;27.80;94.40;;;;;;5036799;28;20470;-61
2022/07/22 09:31:35;;;;;;;6.60;4.20;;;28.00;91.30;;;;;;5035286;28;20859;-60
2022/07/22 09:34:03;;;;;;;7.43;4.37;;;28.10;92.80;;;;;;5035391;28;20473;-64
2022/07/22 09:36:32;;;;;;;10.27;4.60;;;28.20;92.10;;;;;;5040025;28;20874;-61
2022/07/22 09:38:59;;;;;;;7.17;3.90;;;28.20;92.40;;;;;;5036208;28;20578;-61
2022/07/22 09:41:26;;;;;;;8.00;4.53;;;28.40;92.70;;;;;;5038538;28;20459;-62
2022/07/22 09:43:53;;;;;;;7.80;4.43;;;28.50;90.30;;;;;;5022770;28;20458;-63
2022/07/22 09:46:37;;;;;;;6.70;4.10;;;28.50;89.60;;;;;;5046475;28;20494;-61
2022/07/22 09:49:04;;;;;;;5.43;3.47;;;28.20;89.90;;;;;;5033721;28;20457;-62
2022/07/22 09:51:35;;;;;;;6.37;4.00;;;28.20;91.10;;;;;;5038229;28;20493;-62
2022/07/22 09:54:06;;;;;;;4.50;3.27;;;28.20;90.50;;;;;;5034527;28;20460;-62
2022/07/22 09:56:33;;;;;;;6.50;4.03;;;28.40;92.10;;;;;;5048140;28;20466;-64
2022/07/22 09:59:01;;;;;;;7.27;4.30;;;28.60;89.20;;;;;;5037477;28;20465;-64
2022/07/22 10:01:28;;;;;;;9.27;4.07;;;28.60;89.70;;;;;;5031860;28;20463;-64
2022/07/22 10:03:57;;;;;;;7.47;4.87;;;28.70;89.30;;;;;;5034496;28;20527;-64
2022/07/22 10:06:24;;;;;;;6.70;4.30;;;28.80;90.10;;;;;;5047175;28;20471;-65
2022/07/22 10:08:57;;;;;;;5.20;3.63;;;29.00;89.80;;;;;;5034277;28;20466;-67
2022/07/22 10:11:24;;;;;;;6.20;3.93;;;29.20;89.90;;;;;;5033869;28;20842;-71
2022/07/22 10:13:53;;;;;;;5.50;3.50;;;29.30;88.10;;;;;;5033320;28;20473;-71
2022/07/22 10:16:20;;;;;;;6.97;4.07;;;29.50;87.40;;;;;;5043026;28;20516;-64
2022/07/22 10:18:48;;;;;;;7.00;4.20;;;29.60;88.30;;;;;;5030895;28;20485;-64
2022/07/22 10:21:17;;;;;;;5.50;3.60;;;29.70;88.10;;;;;;5039044;28;20957;-64
2022/07/22 10:24:13;;;;;;;8.30;4.10;;;29.70;87.20;;;;;;5041133;28;20515;-64
2022/07/22 10:27:01;;;;;;;7.90;3.63;;;29.90;87.20;;;;;;5036287;28;20454;-65
2022/07/22 10:29:30;;;;;;;6.67;3.67;;;29.80;85.60;;;;;;5022491;28;21797;-66
2022/07/22 10:32:24;;;;;;;6.80;3.83;;;29.80;86.40;;;;;;5032847;28;20502;-61
2022/07/22 10:35:25;;;;;;;5.27;3.50;;;29.90;87.70;;;;;;5034800;28;20999;-63
2022/07/22 10:38:04;;;;;;;5.70;4.07;;;30.20;87.30;;;;;;5046441;28;20530;-64
2022/07/22 10:40:48;;;;;;;7.03;4.47;;;30.30;86.10;;;;;;5032457;28;20462;-64
2022/07/22 10:43:16;;;;;;;7.47;4.20;;;30.50;85.40;;;;;;5038652;28;20465;-65
2022/07/22 10:45:47;;;;;;;6.10;3.80;;;30.60;86.00;;;;;;5041302;28;20458;-65
2022/07/22 10:48:20;;;;;;;7.63;3.70;;;30.90;85.00;;;;;;5042235;28;20490;-64
2022/07/22 10:50:54;;;;;;;5.93;3.63;;;31.00;83.20;;;;;;5031246;28;20490;-66
2022/07/22 10:53:24;;;;;;;7.20;4.17;;;31.00;85.80;;;;;;5032425;28;20450;-66
2022/07/22 10:56:12;;;;;;;8.40;4.07;;;31.10;83.20;;;;;;5046929;28;20453;-65
2022/07/22 10:59:08;;;;;;;8.63;4.37;;;31.30;83.90;;;;;;5033475;28;20454;-62
2022/07/22 11:01:36;;;;;;;6.67;4.20;;;31.50;82.20;;;;;;5034401;28;20515;-66
2022/07/22 11:04:12;;;;;;;7.37;4.30;;;31.60;82.40;;;;;;5040480;28;20461;-64
2022/07/22 11:06:41;;;;;;;4.50;3.50;;;31.60;83.20;;;;;;5048179;28;20461;-69
2022/07/22 11:09:12;;;;;;;6.00;3.90;;;31.80;82.20;;;;;;5033879;28;20467;-68
2022/07/22 11:11:43;;;;;;;6.57;4.20;;;32.00;81.00;;;;;;5041705;28;20490;-68
2022/07/22 11:14:18;;;;;;;5.30;3.60;;;31.80;82.70;;;;;;5049408;28;20466;-71
2022/07/22 11:16:49;;;;;;;7.30;4.47;;;31.90;80.60;;;;;;5040668;28;20464;-72
2022/07/22 11:19:20;;;;;;;5.30;3.97;;;32.00;80.40;;;;;;5049965;28;20461;-64
2022/07/22 11:21:51;;;;;;;5.17;4.10;;;32.20;82.20;;;;;;5044130;28;20474;-65
2022/07/22 11:24:19;;;;;;;8.00;4.37;;;32.30;80.20;;;;;;5041189;28;20474;-65
2022/07/22 11:26:49;;;;;;;6.73;4.17;;;32.30;80.10;;;;;;5031420;28;20457;-65
2022/07/22 11:29:20;;;;;;;6.10;3.97;;;32.40;81.10;;;;;;5030608;28;20497;-65
2022/07/22 11:31:47;;;;;;;7.13;4.50;;;32.40;80.20;;;;;;5031272;28;20857;-66
2022/07/22 11:34:16;;;;;;;5.43;3.80;;;32.50;78.10;;;;;;5036436;28;20533;-65
2022/07/22 11:36:45;;;;;;;6.00;3.90;;;32.50;79.60;;;;;;5034950;28;20541;-65
2022/07/22 11:39:14;;;;;;;4.97;3.70;;;32.50;79.50;;;;;;5037459;28;20465;-65
2022/07/22 11:41:42;;;;;;;5.87;3.77;;;32.70;80.30;;;;;;5050393;28;20458;-65
2022/07/22 11:44:10;;;;;;;6.80;3.90;;;32.90;79.40;;;;;;5035810;28;20475;-66
2022/07/22 11:46:39;;;;;;;6.53;4.10;;;33.00;79.00;;;;;;5041175;28;20466;-64
2022/07/22 11:49:07;;;;;;;6.40;4.03;;;33.10;78.30;;;;;;5046279;28;20469;-66
2022/07/22 11:51:36;;;;;;;5.90;3.83;;;33.10;77.60;;;;;;5033274;28;20490;-65
2022/07/22 11:54:03;;;;;;;6.60;4.10;;;33.30;78.60;;;;;;5031944;28;20819;-66
2022/07/22 11:56:31;;;;;;;6.57;4.10;;;33.30;77.80;;;;;;5037192;28;20457;-66
2022/07/22 11:58:58;;;;;;;6.37;3.77;;;33.30;76.90;;;;;;5050200;28;20883;-64
2022/07/22 12:01:28;;;;;;;4.97;3.80;;;33.40;76.50;;;;;;5039608;28;20535;-63
2022/07/22 12:03:59;;;;;;;5.80;3.70;;;33.40;76.20;;;;;;5034541;28;20470;-65
2022/07/22 12:06:27;;;;;;;6.37;4.17;;;33.40;77.60;;;;;;5036822;28;20789;-65
2022/07/22 12:08:57;;;;;;;9.30;4.30;;;33.40;74.60;;;;;;5032220;28;20470;-66
2022/07/22 12:11:26;;;;;;;8.80;4.30;;;33.40;77.40;;;;;;5046481;28;20489;-64
2022/07/22 12:13:53;;;;;;;6.03;3.93;;;33.40;75.90;;;;;;5040738;28;20472;-63
2022/07/22 12:16:23;;;;;;;5.30;3.90;;;33.50;77.40;;;;;;5043007;28;20509;-64
2022/07/22 12:19:01;;;;;;;6.00;3.73;;;33.70;77.70;;;;;;5046164;28;20828;-63
2022/07/22 12:21:32;;;;;;;6.67;3.97;;;33.80;77.00;;;;;;5047900;28;20961;-62
2022/07/22 12:24:01;;;;;;;5.17;3.60;;;33.90;74.40;;;;;;5047207;28;20457;-63
2022/07/22 12:26:44;;;;;;;5.97;4.00;;;34.00;75.80;;;;;;5048620;28;21030;-63
2022/07/22 12:29:30;;;;;;;5.90;3.60;;;34.00;77.50;;;;;;5021819;28;20462;-62
2022/07/22 12:32:00;;;;;;;5.03;3.60;;;34.00;75.10;;;;;;5030450;28;20494;-64
2022/07/22 12:34:34;;;;;;;6.87;4.13;;;34.10;76.10;;;;;;5040070;28;20469;-64
2022/07/22 12:37:11;;;;;;;5.60;3.93;;;34.20;74.80;;;;;;5044554;28;20462;-63
2022/07/22 12:39:39;;;;;;;5.63;3.63;;;34.20;75.50;;;;;;5033636;28;20461;-63
2022/07/22 12:42:17;;;;;;;5.40;3.40;;;34.40;74.80;;;;;;5034299;28;20466;-64
2022/07/22 12:44:52;;;;;;;6.43;3.80;;;34.50;73.30;;;;;;5039359;28;20457;-63
2022/07/22 12:47:34;;;;;;;6.27;3.87;;;34.60;72.70;;;;;;5041698;28;20461;-64
2022/07/22 12:53:03;;;;;;;7.17;3.80;;;34.90;71.00;;;;;;5147848;27;20554;-64
2022/07/22 12:55:31;;;;;;;6.20;3.77;;;35.00;71.70;;;;;;5126571;27;20464;-64
2022/07/22 12:58:00;;;;;;;5.87;3.53;;;35.10;72.40;;;;;;5127132;28;20454;-64